sensor_id;sensor_type;location;lat;lon;timestamp;temperature;humidity
29031;DHT22;16122;50.236;11.734;2022-09-09T00:04:36;20.40;68.80
29031;DHT22;16122;50.236;11.734;2022-09-09T00:07:19;20.40;68.90
29031;DHT22;16122;50.236;11.734;2022-09-09T00:15:20;20.40;68.80
29031;DHT22;16122;50.236;11.734;2022-09-09T00:21:06;20.40;69.60
29031;DHT22;16122;50.236;11.734;2022-09-09T00:23:38;20.30;68.70
29031;DHT22;16122;50.236;11.734;2022-09-09T00:28:33;20.30;68.70
29031;DHT22;16122;50.236;11.734;2022-09-09T00:31:18;20.40;68.90
29031;DHT22;16122;50.236;11.734;2022-09-09T00:33:46;20.30;68.70
29031;DHT22;16122;50.236;11.734;2022-09-09T00:36:16;20.40;68.90
29031;DHT22;16122;50.236;11.734;2022-09-09T00:38:55;20.30;68.80
29031;DHT22;16122;50.236;11.734;2022-09-09T00:41:48;20.30;68.70
29031;DHT22;16122;50.236;11.734;2022-09-09T00:44:33;20.40;68.80
29031;DHT22;16122;50.236;11.734;2022-09-09T00:58:07;20.30;68.70
29031;DHT22;16122;50.236;11.734;2022-09-09T01:00:58;20.30;68.70
29031;DHT22;16122;50.236;11.734;2022-09-09T01:03:42;20.30;68.70
29031;DHT22;16122;50.236;11.734;2022-09-09T01:06:13;20.30;68.80
29031;DHT22;16122;50.236;11.734;2022-09-09T01:11:24;20.30;68.70
29031;DHT22;16122;50.236;11.734;2022-09-09T01:14:27;20.30;68.70
29031;DHT22;16122;50.236;11.734;2022-09-09T01:17:00;20.30;68.70
29031;DHT22;16122;50.236;11.734;2022-09-09T01:28:42;20.30;68.70
29031;DHT22;16122;50.236;11.734;2022-09-09T01:31:28;20.30;68.70
29031;DHT22;16122;50.236;11.734;2022-09-09T01:33:55;20.20;68.60
29031;DHT22;16122;50.236;11.734;2022-09-09T01:36:31;20.30;68.70
29031;DHT22;16122;50.236;11.734;2022-09-09T01:38:59;20.20;68.60
29031;DHT22;16122;50.236;11.734;2022-09-09T01:41:26;20.20;68.60
29031;DHT22;16122;50.236;11.734;2022-09-09T01:44:12;20.20;68.60
29031;DHT22;16122;50.236;11.734;2022-09-09T01:46:42;20.30;68.70
29031;DHT22;16122;50.236;11.734;2022-09-09T01:49:14;20.20;68.60
29031;DHT22;16122;50.236;11.734;2022-09-09T01:51:42;20.20;68.70
29031;DHT22;16122;50.236;11.734;2022-09-09T01:54:11;20.20;68.60
29031;DHT22;16122;50.236;11.734;2022-09-09T02:08:00;20.20;68.60
29031;DHT22;16122;50.236;11.734;2022-09-09T02:10:46;20.20;68.60
29031;DHT22;16122;50.236;11.734;2022-09-09T02:13:29;20.20;68.70
29031;DHT22;16122;50.236;11.734;2022-09-09T02:18:32;20.20;68.70
29031;DHT22;16122;50.236;11.734;2022-09-09T02:21:00;20.20;68.70
29031;DHT22;16122;50.236;11.734;2022-09-09T02:23:28;20.20;68.70
29031;DHT22;16122;50.236;11.734;2022-09-09T02:25:57;20.20;68.70
29031;DHT22;16122;50.236;11.734;2022-09-09T02:28:27;20.20;68.60
29031;DHT22;16122;50.236;11.734;2022-09-09T02:30:55;20.20;68.70
29031;DHT22;16122;50.236;11.734;2022-09-09T02:33:33;20.20;68.70
29031;DHT22;16122;50.236;11.734;2022-09-09T02:36:01;20.20;68.70
29031;DHT22;16122;50.236;11.734;2022-09-09T02:38:34;20.20;68.70
29031;DHT22;16122;50.236;11.734;2022-09-09T02:41:07;20.20;68.70
29031;DHT22;16122;50.236;11.734;2022-09-09T02:43:34;20.20;68.70
29031;DHT22;16122;50.236;11.734;2022-09-09T02:49:00;20.20;68.70
29031;DHT22;16122;50.236;11.734;2022-09-09T02:54:35;20.20;68.60
29031;DHT22;16122;50.236;11.734;2022-09-09T02:57:08;20.20;68.60
29031;DHT22;16122;50.236;11.734;2022-09-09T02:59:38;20.20;68.70
29031;DHT22;16122;50.236;11.734;2022-09-09T03:02:04;20.20;68.70
29031;DHT22;16122;50.236;11.734;2022-09-09T03:04:31;20.20;68.70
29031;DHT22;16122;50.236;11.734;2022-09-09T03:07:00;20.20;68.60
29031;DHT22;16122;50.236;11.734;2022-09-09T03:09:26;20.20;68.60
29031;DHT22;16122;50.236;11.734;2022-09-09T03:11:53;20.20;69.40
29031;DHT22;16122;50.236;11.734;2022-09-09T03:14:21;20.20;68.60
29031;DHT22;16122;50.236;11.734;2022-09-09T03:16:51;20.20;68.60
29031;DHT22;16122;50.236;11.734;2022-09-09T03:19:17;20.20;68.60
29031;DHT22;16122;50.236;11.734;2022-09-09T03:21:45;20.20;68.60
29031;DHT22;16122;50.236;11.734;2022-09-09T03:24:11;20.20;68.60
29031;DHT22;16122;50.236;11.734;2022-09-09T03:26:38;20.20;68.50
29031;DHT22;16122;50.236;11.734;2022-09-09T03:29:06;20.20;68.60
29031;DHT22;16122;50.236;11.734;2022-09-09T03:31:36;20.00;68.40
29031;DHT22;16122;50.236;11.734;2022-09-09T03:34:02;20.20;68.90
29031;DHT22;16122;50.236;11.734;2022-09-09T03:36:32;20.20;68.60
29031;DHT22;16122;50.236;11.734;2022-09-09T03:38:58;20.20;68.60
29031;DHT22;16122;50.236;11.734;2022-09-09T03:41:27;20.20;68.50
29031;DHT22;16122;50.236;11.734;2022-09-09T03:43:54;20.10;68.50
29031;DHT22;16122;50.236;11.734;2022-09-09T03:46:24;20.10;68.50
29031;DHT22;16122;50.236;11.734;2022-09-09T03:48:50;20.10;68.50
29031;DHT22;16122;50.236;11.734;2022-09-09T03:51:18;20.20;68.60
29031;DHT22;16122;50.236;11.734;2022-09-09T03:53:44;20.10;68.60
29031;DHT22;16122;50.236;11.734;2022-09-09T03:56:12;20.00;69.00
29031;DHT22;16122;50.236;11.734;2022-09-09T03:58:38;20.20;69.30
29031;DHT22;16122;50.236;11.734;2022-09-09T04:01:09;20.20;69.50
29031;DHT22;16122;50.236;11.734;2022-09-09T04:03:36;20.20;69.60
29031;DHT22;16122;50.236;11.734;2022-09-09T04:06:03;20.20;69.60
29031;DHT22;16122;50.236;11.734;2022-09-09T04:08:30;20.20;69.80
29031;DHT22;16122;50.236;11.734;2022-09-09T04:10:58;20.20;70.00
29031;DHT22;16122;50.236;11.734;2022-09-09T04:13:27;20.20;70.30
29031;DHT22;16122;50.236;11.734;2022-09-09T04:15:56;20.20;70.50
29031;DHT22;16122;50.236;11.734;2022-09-09T04:18:23;20.20;70.70
29031;DHT22;16122;50.236;11.734;2022-09-09T04:20:50;20.20;70.80
29031;DHT22;16122;50.236;11.734;2022-09-09T04:23:20;20.20;71.10
29031;DHT22;16122;50.236;11.734;2022-09-09T04:25:51;20.20;71.20
29031;DHT22;16122;50.236;11.734;2022-09-09T04:28:20;20.20;71.00
29031;DHT22;16122;50.236;11.734;2022-09-09T04:30:46;20.20;71.00
29031;DHT22;16122;50.236;11.734;2022-09-09T04:33:13;20.20;71.00
29031;DHT22;16122;50.236;11.734;2022-09-09T04:35:46;20.20;70.80
29031;DHT22;16122;50.236;11.734;2022-09-09T04:38:14;20.20;70.80
29031;DHT22;16122;50.236;11.734;2022-09-09T04:40:47;20.20;70.70
29031;DHT22;16122;50.236;11.734;2022-09-09T04:43:14;20.20;70.60
29031;DHT22;16122;50.236;11.734;2022-09-09T04:45:48;20.20;70.60
29031;DHT22;16122;50.236;11.734;2022-09-09T04:48:14;20.20;70.50
29031;DHT22;16122;50.236;11.734;2022-09-09T04:50:40;20.20;70.40
29031;DHT22;16122;50.236;11.734;2022-09-09T04:53:09;20.20;70.30
29031;DHT22;16122;50.236;11.734;2022-09-09T04:55:37;20.20;70.30
29031;DHT22;16122;50.236;11.734;2022-09-09T04:58:04;20.20;70.30
29031;DHT22;16122;50.236;11.734;2022-09-09T05:00:32;20.10;70.00
29031;DHT22;16122;50.236;11.734;2022-09-09T05:03:03;20.20;70.10
29031;DHT22;16122;50.236;11.734;2022-09-09T05:05:29;20.20;70.10
29031;DHT22;16122;50.236;11.734;2022-09-09T05:08:04;20.20;70.00
29031;DHT22;16122;50.236;11.734;2022-09-09T05:10:30;20.20;70.00
29031;DHT22;16122;50.236;11.734;2022-09-09T05:12:58;20.20;70.00
29031;DHT22;16122;50.236;11.734;2022-09-09T05:15:26;20.20;69.80
29031;DHT22;16122;50.236;11.734;2022-09-09T05:17:52;20.10;69.70
29031;DHT22;16122;50.236;11.734;2022-09-09T05:20:22;20.30;69.90
29031;DHT22;16122;50.236;11.734;2022-09-09T05:22:55;20.10;69.60
29031;DHT22;16122;50.236;11.734;2022-09-09T05:25:24;20.10;69.60
29031;DHT22;16122;50.236;11.734;2022-09-09T05:27:53;20.10;69.60
29031;DHT22;16122;50.236;11.734;2022-09-09T05:30:20;20.10;69.60
29031;DHT22;16122;50.236;11.734;2022-09-09T05:32:46;20.10;69.50
29031;DHT22;16122;50.236;11.734;2022-09-09T05:35:15;20.10;69.50
29031;DHT22;16122;50.236;11.734;2022-09-09T05:37:42;20.10;69.40
29031;DHT22;16122;50.236;11.734;2022-09-09T05:40:08;20.10;69.40
29031;DHT22;16122;50.236;11.734;2022-09-09T05:42:35;20.10;69.40
29031;DHT22;16122;50.236;11.734;2022-09-09T05:45:00;20.10;69.30
29031;DHT22;16122;50.236;11.734;2022-09-09T05:47:26;20.10;69.40
29031;DHT22;16122;50.236;11.734;2022-09-09T05:49:55;20.10;69.30
29031;DHT22;16122;50.236;11.734;2022-09-09T05:52:22;19.90;69.10
29031;DHT22;16122;50.236;11.734;2022-09-09T05:54:49;20.10;69.30
29031;DHT22;16122;50.236;11.734;2022-09-09T05:57:16;20.10;69.30
29031;DHT22;16122;50.236;11.734;2022-09-09T05:59:43;20.10;69.20
29031;DHT22;16122;50.236;11.734;2022-09-09T06:02:09;20.10;69.20
29031;DHT22;16122;50.236;11.734;2022-09-09T06:04:36;20.10;69.20
29031;DHT22;16122;50.236;11.734;2022-09-09T06:07:04;20.10;69.20
29031;DHT22;16122;50.236;11.734;2022-09-09T06:09:31;20.10;69.20
29031;DHT22;16122;50.236;11.734;2022-09-09T06:11:57;20.10;69.10
29031;DHT22;16122;50.236;11.734;2022-09-09T06:14:24;20.10;69.10
29031;DHT22;16122;50.236;11.734;2022-09-09T06:16:53;20.10;69.10
29031;DHT22;16122;50.236;11.734;2022-09-09T06:19:22;20.10;69.10
29031;DHT22;16122;50.236;11.734;2022-09-09T06:21:53;20.10;69.10
29031;DHT22;16122;50.236;11.734;2022-09-09T06:24:18;20.10;68.90
29031;DHT22;16122;50.236;11.734;2022-09-09T06:26:45;20.10;69.00
29031;DHT22;16122;50.236;11.734;2022-09-09T06:29:15;20.10;69.00
29031;DHT22;16122;50.236;11.734;2022-09-09T06:31:42;20.00;68.80
29031;DHT22;16122;50.236;11.734;2022-09-09T06:34:14;20.10;68.90
29031;DHT22;16122;50.236;11.734;2022-09-09T06:36:45;20.10;68.90
29031;DHT22;16122;50.236;11.734;2022-09-09T06:39:12;20.10;68.70
29031;DHT22;16122;50.236;11.734;2022-09-09T06:41:39;20.10;68.90
29031;DHT22;16122;50.236;11.734;2022-09-09T06:44:08;20.10;68.80
29031;DHT22;16122;50.236;11.734;2022-09-09T06:46:39;20.20;68.90
29031;DHT22;16122;50.236;11.734;2022-09-09T06:49:08;20.10;68.80
29031;DHT22;16122;50.236;11.734;2022-09-09T06:51:36;20.10;68.90
29031;DHT22;16122;50.236;11.734;2022-09-09T06:54:04;20.20;68.90
29031;DHT22;16122;50.236;11.734;2022-09-09T06:56:38;20.20;68.90
29031;DHT22;16122;50.236;11.734;2022-09-09T06:59:11;20.10;68.70
29031;DHT22;16122;50.236;11.734;2022-09-09T07:01:39;20.20;68.80
29031;DHT22;16122;50.236;11.734;2022-09-09T07:04:13;20.20;68.80
29031;DHT22;16122;50.236;11.734;2022-09-09T07:06:43;20.20;68.80
29031;DHT22;16122;50.236;11.734;2022-09-09T07:09:14;20.20;68.70
29031;DHT22;16122;50.236;11.734;2022-09-09T07:11:48;20.20;68.70
29031;DHT22;16122;50.236;11.734;2022-09-09T07:14:16;20.20;68.70
29031;DHT22;16122;50.236;11.734;2022-09-09T07:16:46;20.20;68.70
29031;DHT22;16122;50.236;11.734;2022-09-09T07:19:14;20.20;68.60
29031;DHT22;16122;50.236;11.734;2022-09-09T07:21:41;20.10;68.60
29031;DHT22;16122;50.236;11.734;2022-09-09T07:24:10;20.10;68.50
29031;DHT22;16122;50.236;11.734;2022-09-09T07:26:39;20.10;68.50
29031;DHT22;16122;50.236;11.734;2022-09-09T07:29:07;20.10;68.50
29031;DHT22;16122;50.236;11.734;2022-09-09T07:31:35;20.10;68.50
29031;DHT22;16122;50.236;11.734;2022-09-09T07:34:04;20.20;68.70
29031;DHT22;16122;50.236;11.734;2022-09-09T07:36:33;20.10;68.40
29031;DHT22;16122;50.236;11.734;2022-09-09T07:39:08;20.20;68.50
29031;DHT22;16122;50.236;11.734;2022-09-09T07:41:46;20.10;68.50
29031;DHT22;16122;50.236;11.734;2022-09-09T07:44:19;20.20;68.40
29031;DHT22;16122;50.236;11.734;2022-09-09T07:46:50;20.10;68.40
29031;DHT22;16122;50.236;11.734;2022-09-09T07:49:20;20.20;68.50
29031;DHT22;16122;50.236;11.734;2022-09-09T07:51:47;20.20;68.40
29031;DHT22;16122;50.236;11.734;2022-09-09T07:54:16;20.20;68.40
29031;DHT22;16122;50.236;11.734;2022-09-09T07:56:47;20.20;68.30
29031;DHT22;16122;50.236;11.734;2022-09-09T07:59:13;20.20;68.20
29031;DHT22;16122;50.236;11.734;2022-09-09T08:01:46;20.20;68.20
29031;DHT22;16122;50.236;11.734;2022-09-09T08:04:17;20.20;68.20
29031;DHT22;16122;50.236;11.734;2022-09-09T08:06:51;20.20;68.20
29031;DHT22;16122;50.236;11.734;2022-09-09T08:09:20;20.20;68.20
29031;DHT22;16122;50.236;11.734;2022-09-09T08:11:48;20.20;68.20
29031;DHT22;16122;50.236;11.734;2022-09-09T08:14:16;20.20;68.20
29031;DHT22;16122;50.236;11.734;2022-09-09T08:16:44;20.20;68.10
29031;DHT22;16122;50.236;11.734;2022-09-09T08:19:13;20.20;68.10
29031;DHT22;16122;50.236;11.734;2022-09-09T08:21:41;20.20;68.10
29031;DHT22;16122;50.236;11.734;2022-09-09T08:24:10;20.20;68.10
29031;DHT22;16122;50.236;11.734;2022-09-09T08:26:40;20.20;68.00
29031;DHT22;16122;50.236;11.734;2022-09-09T08:29:09;20.20;68.00
29031;DHT22;16122;50.236;11.734;2022-09-09T08:31:38;20.20;67.90
29031;DHT22;16122;50.236;11.734;2022-09-09T08:34:06;20.20;67.90
29031;DHT22;16122;50.236;11.734;2022-09-09T08:36:36;20.20;67.80
29031;DHT22;16122;50.236;11.734;2022-09-09T08:39:05;20.20;67.80
29031;DHT22;16122;50.236;11.734;2022-09-09T08:52:21;20.20;67.70
29031;DHT22;16122;50.236;11.734;2022-09-09T08:54:48;20.20;67.70
29031;DHT22;16122;50.236;11.734;2022-09-09T08:57:20;20.20;67.60
29031;DHT22;16122;50.236;11.734;2022-09-09T08:59:46;20.20;67.50
29031;DHT22;16122;50.236;11.734;2022-09-09T09:02:19;20.20;67.50
29031;DHT22;16122;50.236;11.734;2022-09-09T09:07:26;20.20;67.50
29031;DHT22;16122;50.236;11.734;2022-09-09T09:10:46;20.20;67.40
29031;DHT22;16122;50.236;11.734;2022-09-09T09:13:24;20.50;67.60
29031;DHT22;16122;50.236;11.734;2022-09-09T09:16:03;20.30;67.40
29031;DHT22;16122;50.236;11.734;2022-09-09T09:18:33;20.30;67.40
29031;DHT22;16122;50.236;11.734;2022-09-09T09:21:12;20.20;67.20
29031;DHT22;16122;50.236;11.734;2022-09-09T09:23:51;20.30;67.20
29031;DHT22;16122;50.236;11.734;2022-09-09T09:26:20;20.30;67.20
29031;DHT22;16122;50.236;11.734;2022-09-09T09:28:47;20.30;67.20
29031;DHT22;16122;50.236;11.734;2022-09-09T09:31:16;20.30;67.30
29031;DHT22;16122;50.236;11.734;2022-09-09T09:33:51;20.30;67.20
29031;DHT22;16122;50.236;11.734;2022-09-09T09:36:24;20.30;67.30
29031;DHT22;16122;50.236;11.734;2022-09-09T09:38:58;20.30;67.20
29031;DHT22;16122;50.236;11.734;2022-09-09T09:41:41;20.30;67.20
29031;DHT22;16122;50.236;11.734;2022-09-09T09:44:29;20.20;67.10
29031;DHT22;16122;50.236;11.734;2022-09-09T09:47:11;20.30;67.10
29031;DHT22;16122;50.236;11.734;2022-09-09T09:49:50;20.30;67.10
29031;DHT22;16122;50.236;11.734;2022-09-09T09:52:21;20.30;67.00
29031;DHT22;16122;50.236;11.734;2022-09-09T09:54:47;20.30;66.90
29031;DHT22;16122;50.236;11.734;2022-09-09T09:57:15;20.30;66.80
29031;DHT22;16122;50.236;11.734;2022-09-09T09:59:44;20.30;66.90
29031;DHT22;16122;50.236;11.734;2022-09-09T10:02:24;20.30;66.80
29031;DHT22;16122;50.236;11.734;2022-09-09T10:05:06;20.30;66.80
29031;DHT22;16122;50.236;11.734;2022-09-09T10:07:35;20.30;66.70
29031;DHT22;16122;50.236;11.734;2022-09-09T10:10:03;20.30;66.80
29031;DHT22;16122;50.236;11.734;2022-09-09T10:21:47;20.30;66.80
29031;DHT22;16122;50.236;11.734;2022-09-09T10:38:12;20.30;66.60
29031;DHT22;16122;50.236;11.734;2022-09-09T10:43:36;20.30;66.60
29031;DHT22;16122;50.236;11.734;2022-09-09T10:56:29;20.50;66.90
29031;DHT22;16122;50.236;11.734;2022-09-09T10:59:17;20.30;66.80
29031;DHT22;16122;50.236;11.734;2022-09-09T11:02:07;20.30;66.80
29031;DHT22;16122;50.236;11.734;2022-09-09T11:04:48;20.30;66.80
29031;DHT22;16122;50.236;11.734;2022-09-09T11:07:25;20.30;66.80
29031;DHT22;16122;50.236;11.734;2022-09-09T11:09:56;20.40;66.90
29031;DHT22;16122;50.236;11.734;2022-09-09T11:12:27;20.40;67.00
29031;DHT22;16122;50.236;11.734;2022-09-09T11:15:03;20.40;67.00
29031;DHT22;16122;50.236;11.734;2022-09-09T11:17:46;20.40;67.00
29031;DHT22;16122;50.236;11.734;2022-09-09T11:20:13;20.30;67.00
29031;DHT22;16122;50.236;11.734;2022-09-09T11:22:46;20.30;67.00
29031;DHT22;16122;50.236;11.734;2022-09-09T11:28:10;20.40;67.20
29031;DHT22;16122;50.236;11.734;2022-09-09T11:33:58;20.40;67.10
29031;DHT22;16122;50.236;11.734;2022-09-09T11:41:39;20.40;67.20
29031;DHT22;16122;50.236;11.734;2022-09-09T11:44:34;20.40;67.30
29031;DHT22;16122;50.236;11.734;2022-09-09T11:47:00;20.40;67.30
29031;DHT22;16122;50.236;11.734;2022-09-09T11:54:48;20.40;67.30
29031;DHT22;16122;50.236;11.734;2022-09-09T11:57:45;20.40;67.30
29031;DHT22;16122;50.236;11.734;2022-09-09T12:00:37;20.40;67.40
29031;DHT22;16122;50.236;11.734;2022-09-09T12:03:05;20.40;67.30
29031;DHT22;16122;50.236;11.734;2022-09-09T12:05:40;20.50;67.50
29031;DHT22;16122;50.236;11.734;2022-09-09T12:08:15;20.40;67.40
29031;DHT22;16122;50.236;11.734;2022-09-09T12:10:56;20.40;67.30
29031;DHT22;16122;50.236;11.734;2022-09-09T12:13:24;20.40;67.40
29031;DHT22;16122;50.236;11.734;2022-09-09T12:15:58;20.40;67.30
29031;DHT22;16122;50.236;11.734;2022-09-09T12:18:38;20.40;67.20
29031;DHT22;16122;50.236;11.734;2022-09-09T12:24:05;20.40;67.20
29031;DHT22;16122;50.236;11.734;2022-09-09T12:26:41;20.40;67.10
29031;DHT22;16122;50.236;11.734;2022-09-09T12:29:33;20.50;68.00
29031;DHT22;16122;50.236;11.734;2022-09-09T12:32:15;20.40;67.20
29031;DHT22;16122;50.236;11.734;2022-09-09T12:34:59;20.40;67.10
29031;DHT22;16122;50.236;11.734;2022-09-09T12:40:25;20.40;67.00
29031;DHT22;16122;50.236;11.734;2022-09-09T12:42:52;20.40;67.00
29031;DHT22;16122;50.236;11.734;2022-09-09T12:45:23;20.40;66.90
29031;DHT22;16122;50.236;11.734;2022-09-09T12:48:09;20.40;66.80
29031;DHT22;16122;50.236;11.734;2022-09-09T12:50:43;20.40;66.60
29031;DHT22;16122;50.236;11.734;2022-09-09T12:55:54;20.40;66.50
29031;DHT22;16122;50.236;11.734;2022-09-09T12:58:21;20.40;66.30
29031;DHT22;16122;50.236;11.734;2022-09-09T13:00:51;20.40;66.30
29031;DHT22;16122;50.236;11.734;2022-09-09T13:03:19;20.40;66.10
29031;DHT22;16122;50.236;11.734;2022-09-09T13:05:46;20.40;66.10
29031;DHT22;16122;50.236;11.734;2022-09-09T13:08:14;20.40;65.90
29031;DHT22;16122;50.236;11.734;2022-09-09T13:10:51;20.40;66.00
29031;DHT22;16122;50.236;11.734;2022-09-09T13:13:29;20.40;65.90
29031;DHT22;16122;50.236;11.734;2022-09-09T13:15:58;20.40;65.80
29031;DHT22;16122;50.236;11.734;2022-09-09T13:18:28;20.40;65.80
29031;DHT22;16122;50.236;11.734;2022-09-09T13:20:55;20.50;66.00
29031;DHT22;16122;50.236;11.734;2022-09-09T13:23:29;20.50;65.90
29031;DHT22;16122;50.236;11.734;2022-09-09T13:26:01;20.50;65.90
29031;DHT22;16122;50.236;11.734;2022-09-09T13:28:29;20.40;65.90
29031;DHT22;16122;50.236;11.734;2022-09-09T13:31:00;20.40;65.70
29031;DHT22;16122;50.236;11.734;2022-09-09T13:33:37;20.40;65.80
29031;DHT22;16122;50.236;11.734;2022-09-09T13:36:08;20.50;65.70
29031;DHT22;16122;50.236;11.734;2022-09-09T13:38:53;20.50;66.10
29031;DHT22;16122;50.236;11.734;2022-09-09T13:41:25;20.40;66.70
29031;DHT22;16122;50.236;11.734;2022-09-09T13:43:53;20.50;67.00
29031;DHT22;16122;50.236;11.734;2022-09-09T13:46:31;20.50;66.80
29031;DHT22;16122;50.236;11.734;2022-09-09T13:49:03;20.50;66.80
29031;DHT22;16122;50.236;11.734;2022-09-09T13:51:51;20.50;66.70
29031;DHT22;16122;50.236;11.734;2022-09-09T13:54:20;20.40;66.50
29031;DHT22;16122;50.236;11.734;2022-09-09T13:56:46;20.50;66.60
29031;DHT22;16122;50.236;11.734;2022-09-09T13:59:17;20.50;66.60
29031;DHT22;16122;50.236;11.734;2022-09-09T14:01:45;20.50;66.60
29031;DHT22;16122;50.236;11.734;2022-09-09T14:04:12;20.50;66.70
29031;DHT22;16122;50.236;11.734;2022-09-09T14:06:39;20.50;66.70
29031;DHT22;16122;50.236;11.734;2022-09-09T14:09:07;20.50;66.70
29031;DHT22;16122;50.236;11.734;2022-09-09T14:11:33;20.50;66.70
29031;DHT22;16122;50.236;11.734;2022-09-09T14:13:59;20.50;66.80
29031;DHT22;16122;50.236;11.734;2022-09-09T14:16:26;20.50;66.80
29031;DHT22;16122;50.236;11.734;2022-09-09T14:18:53;20.50;67.00
29031;DHT22;16122;50.236;11.734;2022-09-09T14:21:21;20.50;67.20
29031;DHT22;16122;50.236;11.734;2022-09-09T14:23:47;20.50;67.40
29031;DHT22;16122;50.236;11.734;2022-09-09T14:26:14;20.50;67.70
29031;DHT22;16122;50.236;11.734;2022-09-09T14:28:40;20.50;67.90
29031;DHT22;16122;50.236;11.734;2022-09-09T14:31:06;20.50;67.90
29031;DHT22;16122;50.236;11.734;2022-09-09T14:33:33;20.50;68.10
29031;DHT22;16122;50.236;11.734;2022-09-09T14:36:01;20.50;68.20
29031;DHT22;16122;50.236;11.734;2022-09-09T14:38:32;20.50;68.30
29031;DHT22;16122;50.236;11.734;2022-09-09T14:41:00;20.50;68.40
29031;DHT22;16122;50.236;11.734;2022-09-09T14:43:29;20.50;68.50
29031;DHT22;16122;50.236;11.734;2022-09-09T14:45:56;20.40;68.40
29031;DHT22;16122;50.236;11.734;2022-09-09T14:48:22;20.40;68.30
29031;DHT22;16122;50.236;11.734;2022-09-09T14:50:48;20.50;68.50
29031;DHT22;16122;50.236;11.734;2022-09-09T14:53:16;20.50;68.40
29031;DHT22;16122;50.236;11.734;2022-09-09T14:55:42;20.50;68.50
29031;DHT22;16122;50.236;11.734;2022-09-09T14:58:08;20.50;68.50
29031;DHT22;16122;50.236;11.734;2022-09-09T15:00:34;20.50;68.50
29031;DHT22;16122;50.236;11.734;2022-09-09T15:03:00;20.50;68.60
29031;DHT22;16122;50.236;11.734;2022-09-09T15:05:25;20.50;68.50
29031;DHT22;16122;50.236;11.734;2022-09-09T15:07:53;20.50;68.60
29031;DHT22;16122;50.236;11.734;2022-09-09T15:10:18;20.50;68.60
29031;DHT22;16122;50.236;11.734;2022-09-09T15:12:44;20.50;68.60
29031;DHT22;16122;50.236;11.734;2022-09-09T15:15:10;20.50;68.70
29031;DHT22;16122;50.236;11.734;2022-09-09T15:17:36;20.60;68.90
29031;DHT22;16122;50.236;11.734;2022-09-09T15:20:05;20.60;69.00
29031;DHT22;16122;50.236;11.734;2022-09-09T15:22:32;20.60;69.00
29031;DHT22;16122;50.236;11.734;2022-09-09T15:24:59;20.60;68.90
29031;DHT22;16122;50.236;11.734;2022-09-09T15:27:25;20.60;68.80
29031;DHT22;16122;50.236;11.734;2022-09-09T15:29:51;20.60;68.80
29031;DHT22;16122;50.236;11.734;2022-09-09T15:32:17;20.60;68.90
29031;DHT22;16122;50.236;11.734;2022-09-09T15:34:43;20.60;68.90
29031;DHT22;16122;50.236;11.734;2022-09-09T15:37:12;20.50;68.70
29031;DHT22;16122;50.236;11.734;2022-09-09T15:39:39;20.60;68.70
29031;DHT22;16122;50.236;11.734;2022-09-09T15:42:06;20.60;68.60
29031;DHT22;16122;50.236;11.734;2022-09-09T15:44:41;20.40;68.40
29031;DHT22;16122;50.236;11.734;2022-09-09T15:47:11;20.60;69.50
29031;DHT22;16122;50.236;11.734;2022-09-09T15:49:38;20.60;68.70
29031;DHT22;16122;50.236;11.734;2022-09-09T15:52:04;20.60;68.60
29031;DHT22;16122;50.236;11.734;2022-09-09T15:54:34;20.60;68.60
29031;DHT22;16122;50.236;11.734;2022-09-09T15:57:04;20.60;68.40
29031;DHT22;16122;50.236;11.734;2022-09-09T15:59:31;20.60;68.40
29031;DHT22;16122;50.236;11.734;2022-09-09T16:01:59;20.60;68.50
29031;DHT22;16122;50.236;11.734;2022-09-09T16:04:26;20.60;68.70
29031;DHT22;16122;50.236;11.734;2022-09-09T16:06:57;20.60;68.70
29031;DHT22;16122;50.236;11.734;2022-09-09T16:09:24;20.60;68.70
29031;DHT22;16122;50.236;11.734;2022-09-09T16:11:51;20.60;68.80
29031;DHT22;16122;50.236;11.734;2022-09-09T16:14:18;20.60;69.00
29031;DHT22;16122;50.236;11.734;2022-09-09T16:16:44;20.50;68.80
29031;DHT22;16122;50.236;11.734;2022-09-09T16:19:12;20.60;68.90
29031;DHT22;16122;50.236;11.734;2022-09-09T16:21:44;20.60;68.90
29031;DHT22;16122;50.236;11.734;2022-09-09T16:24:13;20.60;68.80
29031;DHT22;16122;50.236;11.734;2022-09-09T16:26:42;20.60;68.80
29031;DHT22;16122;50.236;11.734;2022-09-09T16:29:11;20.60;68.80
29031;DHT22;16122;50.236;11.734;2022-09-09T16:31:38;20.60;68.70
29031;DHT22;16122;50.236;11.734;2022-09-09T16:34:06;20.60;69.50
29031;DHT22;16122;50.236;11.734;2022-09-09T16:36:34;20.60;68.80
29031;DHT22;16122;50.236;11.734;2022-09-09T16:39:04;20.60;68.80
29031;DHT22;16122;50.236;11.734;2022-09-09T16:41:31;20.60;68.80
29031;DHT22;16122;50.236;11.734;2022-09-09T16:43:59;20.60;68.80
29031;DHT22;16122;50.236;11.734;2022-09-09T16:46:26;20.60;68.90
29031;DHT22;16122;50.236;11.734;2022-09-09T16:48:56;20.60;68.90
29031;DHT22;16122;50.236;11.734;2022-09-09T16:53:53;20.60;68.80
29031;DHT22;16122;50.236;11.734;2022-09-09T16:56:22;20.60;68.90
29031;DHT22;16122;50.236;11.734;2022-09-09T16:58:53;20.60;68.90
29031;DHT22;16122;50.236;11.734;2022-09-09T17:01:24;20.60;68.90
29031;DHT22;16122;50.236;11.734;2022-09-09T17:03:57;20.60;69.00
29031;DHT22;16122;50.236;11.734;2022-09-09T17:06:24;20.60;68.80
29031;DHT22;16122;50.236;11.734;2022-09-09T17:08:58;20.60;68.70
29031;DHT22;16122;50.236;11.734;2022-09-09T17:11:26;20.60;68.60
29031;DHT22;16122;50.236;11.734;2022-09-09T17:13:53;20.60;68.60
29031;DHT22;16122;50.236;11.734;2022-09-09T17:16:22;20.60;68.50
29031;DHT22;16122;50.236;11.734;2022-09-09T17:18:49;20.70;69.30
29031;DHT22;16122;50.236;11.734;2022-09-09T17:21:18;20.60;68.30
29031;DHT22;16122;50.236;11.734;2022-09-09T17:23:45;20.60;68.30
29031;DHT22;16122;50.236;11.734;2022-09-09T17:26:14;20.60;68.50
29031;DHT22;16122;50.236;11.734;2022-09-09T17:28:41;20.60;68.80
29031;DHT22;16122;50.236;11.734;2022-09-09T17:31:10;20.60;68.80
29031;DHT22;16122;50.236;11.734;2022-09-09T17:33:38;20.60;68.90
29031;DHT22;16122;50.236;11.734;2022-09-09T17:36:16;20.60;68.90
29031;DHT22;16122;50.236;11.734;2022-09-09T17:38:42;20.70;69.30
29031;DHT22;16122;50.236;11.734;2022-09-09T17:41:35;20.60;69.20
29031;DHT22;16122;50.236;11.734;2022-09-09T17:44:02;20.60;69.50
29031;DHT22;16122;50.236;11.734;2022-09-09T17:46:34;20.60;69.40
29031;DHT22;16122;50.236;11.734;2022-09-09T17:49:05;20.60;69.30
29031;DHT22;16122;50.236;11.734;2022-09-09T17:51:33;20.60;69.20